createdAt,value
2022-08-03T00:01:28.845Z,0.73
2022-08-03T00:03:55.487Z,0.70
2022-08-03T00:06:21.925Z,0.80
2022-08-03T00:08:51.556Z,1.08
2022-08-03T00:11:28.381Z,0.93
2022-08-03T00:13:54.929Z,0.90
2022-08-03T00:16:22.462Z,0.73
2022-08-03T00:18:49.701Z,1.23
2022-08-03T00:21:29.278Z,1.42
2022-08-03T00:23:56.231Z,0.80
2022-08-03T00:26:23.821Z,0.80
2022-08-03T00:28:50.763Z,0.65
2022-08-03T00:31:51.509Z,0.77
2022-08-03T00:34:29.834Z,0.70
2022-08-03T00:37:11.306Z,0.85
2022-08-03T00:39:43.458Z,0.83
2022-08-03T00:42:21.172Z,0.75
2022-08-03T00:44:47.712Z,1.00
2022-08-03T00:47:14.212Z,1.38
2022-08-03T00:50:14.041Z,1.30
2022-08-03T00:52:40.678Z,1.00
2022-08-03T00:55:07.644Z,1.10
2022-08-03T00:57:34.282Z,1.27
2022-08-03T01:00:01.006Z,0.80
2022-08-03T01:02:28.969Z,0.88
2022-08-03T01:05:05.937Z,1.20
2022-08-03T01:08:17.191Z,0.73
2022-08-03T01:11:12.244Z,1.42
2022-08-03T01:14:18.857Z,0.90
2022-08-03T01:16:59.657Z,1.20
2022-08-03T01:19:29.137Z,1.30
2022-08-03T01:22:40.389Z,1.17
2022-08-03T01:25:23.200Z,1.33
2022-08-03T01:28:27.136Z,1.08
2022-08-03T01:30:59.079Z,1.25
2022-08-03T01:33:43.739Z,1.33
2022-08-03T01:36:14.586Z,1.42
2022-08-03T01:38:58.722Z,1.30
2022-08-03T01:41:47.866Z,1.25
2022-08-03T01:44:30.295Z,1.13
2022-08-03T01:47:03.720Z,1.70
2022-08-03T01:49:35.502Z,1.58
2022-08-03T01:52:05.571Z,1.23
2022-08-03T01:54:40.819Z,1.50
2022-08-03T01:57:14.349Z,1.65
2022-08-03T01:59:43.093Z,1.33
2022-08-03T02:02:32.585Z,1.08
2022-08-03T02:05:20.864Z,1.45
2022-08-03T02:07:54.186Z,1.58
2022-08-03T02:10:34.884Z,1.35
2022-08-03T02:13:07.067Z,1.33
2022-08-03T02:16:03.966Z,1.90
2022-08-03T02:18:35.517Z,1.73
2022-08-03T02:21:10.779Z,1.88
2022-08-03T02:23:38.778Z,1.30
2022-08-03T02:26:08.682Z,1.93
2022-08-03T02:29:21.850Z,1.45
2022-08-03T02:32:57.678Z,1.88
2022-08-03T02:35:27.090Z,1.30
2022-08-03T02:37:59.663Z,1.58
2022-08-03T02:40:41.245Z,1.60
2022-08-03T02:43:23.014Z,1.20
2022-08-03T02:46:02.780Z,1.80
2022-08-03T02:48:36.926Z,1.60
2022-08-03T02:51:10.322Z,2.20
2022-08-03T02:53:37.265Z,1.60
2022-08-03T02:56:08.657Z,1.55
2022-08-03T02:58:36.317Z,1.85
2022-08-03T03:01:03.566Z,1.30
2022-08-03T03:03:31.889Z,1.77
2022-08-03T03:06:10.481Z,1.77
2022-08-03T03:08:37.249Z,1.38
2022-08-03T03:11:08.969Z,1.90
2022-08-03T03:14:33.509Z,1.33
2022-08-03T03:17:11.832Z,1.92
2022-08-03T03:19:40.865Z,1.53
2022-08-03T03:22:08.528Z,1.58
2022-08-03T03:24:39.958Z,1.85
2022-08-03T03:27:36.721Z,1.60
2022-08-03T03:30:05.540Z,1.77
2022-08-03T03:32:32.542Z,1.77
2022-08-03T03:34:59.685Z,2.35
2022-08-03T03:37:29.484Z,2.60
2022-08-03T03:39:56.339Z,1.60
2022-08-03T03:42:25.990Z,2.28
2022-08-03T03:44:53.869Z,1.47
2022-08-03T03:47:32.495Z,2.70
2022-08-03T03:50:11.733Z,2.00
2022-08-03T03:52:38.338Z,2.20
2022-08-03T03:55:05.183Z,2.10
2022-08-03T03:57:54.440Z,1.40
2022-08-03T04:00:22.717Z,1.90
2022-08-03T04:02:51.192Z,1.70
2022-08-03T04:05:36.340Z,2.20
2022-08-03T04:08:35.253Z,1.95
2022-08-03T04:11:34.557Z,1.47
2022-08-03T04:14:23.231Z,1.85
2022-08-03T04:16:54.845Z,1.80
2022-08-03T04:19:39.552Z,1.80
2022-08-03T04:22:17.831Z,2.05
2022-08-03T04:24:51.919Z,1.90
2022-08-03T04:28:09.750Z,1.65
2022-08-03T04:30:47.470Z,2.10
2022-08-03T04:33:16.289Z,1.90
2022-08-03T04:35:58.673Z,2.00
2022-08-03T04:38:31.657Z,2.07
2022-08-03T04:41:01.496Z,2.10
2022-08-03T04:43:29.373Z,2.28
2022-08-03T04:45:58.851Z,2.40
2022-08-03T04:48:28.977Z,1.98
2022-08-03T04:50:55.519Z,2.53
2022-08-03T04:53:29.164Z,2.25
2022-08-03T04:55:55.589Z,2.22
2022-08-03T04:58:22.005Z,1.85
2022-08-03T05:00:51.326Z,2.45
2022-08-03T05:03:20.505Z,2.07
2022-08-03T05:05:52.253Z,1.90
2022-08-03T05:08:20.666Z,2.08
2022-08-03T05:11:01.036Z,2.28
2022-08-03T05:13:27.541Z,2.70
2022-08-03T05:15:53.955Z,2.30
2022-08-03T05:18:20.388Z,2.10
2022-08-03T05:20:47.852Z,2.20
2022-08-03T05:23:14.461Z,2.22
2022-08-03T05:25:41.136Z,2.35
2022-08-03T05:28:16.382Z,1.90
2022-08-03T05:30:44.821Z,2.25
2022-08-03T05:33:11.298Z,2.90
2022-08-03T05:35:55.843Z,1.98
2022-08-03T05:38:34.692Z,2.72
2022-08-03T05:41:21.924Z,2.00
2022-08-03T05:43:56.226Z,2.55
2022-08-03T05:46:28.556Z,2.55
2022-08-03T05:48:55.021Z,2.53
2022-08-03T05:51:21.618Z,2.35
2022-08-03T05:53:48.089Z,2.43
2022-08-03T05:56:16.443Z,2.00
2022-08-03T05:58:47.590Z,2.40
2022-08-03T06:01:24.694Z,2.60
2022-08-03T06:04:03.568Z,2.72
2022-08-03T06:06:32.342Z,2.50
2022-08-03T06:09:03.376Z,2.38
2022-08-03T06:11:29.788Z,2.78
2022-08-03T06:13:56.280Z,2.20
2022-08-03T06:16:24.829Z,2.63
2022-08-03T06:18:51.265Z,2.23
2022-08-03T06:21:27.182Z,2.92
2022-08-03T06:23:58.754Z,5.03
2022-08-03T06:26:55.028Z,3.53
2022-08-03T06:29:21.459Z,5.55
2022-08-03T06:31:50.965Z,4.17
2022-08-03T06:34:33.715Z,2.38
2022-08-03T06:37:02.476Z,3.00
2022-08-03T06:39:36.932Z,2.67
2022-08-03T06:42:04.168Z,2.20
2022-08-03T06:44:30.712Z,2.30
2022-08-03T06:46:57.293Z,2.85
2022-08-03T06:49:28.025Z,2.05
2022-08-03T06:52:10.962Z,2.65
2022-08-03T06:54:37.476Z,2.42
2022-08-03T06:57:04.611Z,2.13
2022-08-03T07:00:08.077Z,2.38
2022-08-03T07:02:19.878Z,2.90
2022-08-03T07:04:48.779Z,2.08
2022-08-03T07:07:15.271Z,2.70
2022-08-03T07:09:57.034Z,1.97
2022-08-03T07:12:28.055Z,2.22
2022-08-03T07:15:53.970Z,2.40
2022-08-03T07:18:09.854Z,1.77
2022-08-03T07:20:36.338Z,2.78
2022-08-03T07:23:06.970Z,1.70
2022-08-03T07:25:41.502Z,2.10
2022-08-03T07:28:08.449Z,2.05
2022-08-03T07:30:36.961Z,2.33
2022-08-03T07:33:08.630Z,1.73
2022-08-03T07:35:35.110Z,2.03
2022-08-03T07:38:08.856Z,1.88
2022-08-03T07:40:37.300Z,1.98
2022-08-03T07:43:05.073Z,2.28
2022-08-03T07:45:44.885Z,2.30
2022-08-03T07:48:15.344Z,2.00
2022-08-03T07:50:47.107Z,2.40
2022-08-03T07:53:15.623Z,2.22
2022-08-03T07:55:42.432Z,2.08
2022-08-03T07:58:12.578Z,1.90
2022-08-03T08:00:41.849Z,2.30
2022-08-03T08:03:08.700Z,2.00
2022-08-03T08:05:53.675Z,2.20
2022-08-03T08:08:32.425Z,1.67
2022-08-03T08:10:59.065Z,2.17
2022-08-03T08:13:25.905Z,2.00
2022-08-03T08:15:52.444Z,1.90
2022-08-03T08:18:18.945Z,2.22
2022-08-03T08:20:58.144Z,1.80
2022-08-03T08:23:44.149Z,1.90
2022-08-03T08:26:13.088Z,2.37
2022-08-03T08:28:45.741Z,1.27
2022-08-03T08:31:12.221Z,2.40
2022-08-03T08:36:25.245Z,2.22
2022-08-03T08:38:51.765Z,1.67
2022-08-03T08:41:18.287Z,1.88
2022-08-03T08:43:44.849Z,1.55
2022-08-03T08:46:23.452Z,2.03
2022-08-03T08:48:51.745Z,1.83
2022-08-03T08:51:20.706Z,1.73
2022-08-03T08:53:52.054Z,1.92
2022-08-03T08:56:40.441Z,1.75
2022-08-03T08:59:07.421Z,2.63
2022-08-03T09:01:34.002Z,2.00
2022-08-03T09:04:11.181Z,2.30
2022-08-03T09:07:04.413Z,2.45
2022-08-03T09:10:10.661Z,2.28
2022-08-03T09:12:42.344Z,2.42
2022-08-03T09:15:18.540Z,2.28
2022-08-03T09:17:50.353Z,1.40
2022-08-03T09:20:26.482Z,1.70
2022-08-03T09:23:09.737Z,3.13
2022-08-03T09:25:59.785Z,1.90
2022-08-03T09:29:00.060Z,2.42
2022-08-03T09:31:30.102Z,1.87
2022-08-03T09:34:28.697Z,1.98
2022-08-03T09:38:11.978Z,2.33
2022-08-03T09:40:35.203Z,2.08
2022-08-03T09:43:15.929Z,1.90
2022-08-03T09:45:42.840Z,1.60
2022-08-03T09:48:36.771Z,1.40
2022-08-03T09:51:13.014Z,1.88
2022-08-03T09:53:57.283Z,1.70
2022-08-03T09:56:38.588Z,2.13
2022-08-03T09:59:05.082Z,1.53
2022-08-03T10:01:36.264Z,1.67
2022-08-03T10:04:05.878Z,1.80
2022-08-03T10:06:32.548Z,2.50
2022-08-03T10:09:16.489Z,2.10
2022-08-03T10:11:46.980Z,1.43
2022-08-03T10:14:20.147Z,1.40
2022-08-03T10:16:47.790Z,2.00
2022-08-03T10:19:15.698Z,1.52
2022-08-03T10:21:59.422Z,1.88
2022-08-03T10:24:28.435Z,1.47
2022-08-03T10:27:07.203Z,1.90
2022-08-03T10:29:47.034Z,1.90
2022-08-03T10:32:30.202Z,2.58
2022-08-03T10:35:20.927Z,1.83
2022-08-03T10:38:09.833Z,2.10
2022-08-03T10:40:57.172Z,1.90
2022-08-03T10:43:34.116Z,1.67
2022-08-03T10:46:02.429Z,1.52
2022-08-03T10:48:30.110Z,1.80
2022-08-03T10:50:56.860Z,1.90
2022-08-03T10:53:40.279Z,1.90
2022-08-03T10:56:49.616Z,2.00
2022-08-03T10:59:40.189Z,1.58
2022-08-03T11:02:09.848Z,2.28
2022-08-03T11:04:36.386Z,1.47
2022-08-03T11:07:22.822Z,1.20
2022-08-03T11:09:54.909Z,1.90
2022-08-03T11:12:32.401Z,1.55
2022-08-03T11:15:08.464Z,1.30
2022-08-03T11:17:46.484Z,2.43
2022-08-03T11:20:48.960Z,3.70
2022-08-03T11:23:17.524Z,3.13
2022-08-03T11:26:08.836Z,2.58
2022-08-03T11:28:35.504Z,1.67
2022-08-03T11:31:48.686Z,1.10
2022-08-03T11:34:13.288Z,1.67
2022-08-03T11:37:22.855Z,1.30
2022-08-03T11:39:51.870Z,1.33
2022-08-03T11:42:24.609Z,1.10
2022-08-03T11:44:52.573Z,1.63
2022-08-03T11:47:20.786Z,1.10
2022-08-03T11:49:48.333Z,1.73
2022-08-03T11:52:17.026Z,1.00
2022-08-03T11:54:56.719Z,1.50
2022-08-03T11:59:13.118Z,1.80
2022-08-03T12:00:26.114Z,1.02
2022-08-03T12:03:07.953Z,1.30
2022-08-03T12:05:38.704Z,1.35
2022-08-03T12:08:07.074Z,2.20
2022-08-03T12:10:34.457Z,2.43
2022-08-03T12:13:02.500Z,1.02
2022-08-03T12:15:43.577Z,1.88
2022-08-03T12:18:16.240Z,1.63
2022-08-03T12:20:43.727Z,1.23
2022-08-03T12:23:37.782Z,1.30
2022-08-03T12:26:10.121Z,2.33
2022-08-03T12:28:38.327Z,1.25
2022-08-03T12:31:07.748Z,1.90
2022-08-03T12:33:58.834Z,1.10
2022-08-03T12:36:53.683Z,1.03
2022-08-03T12:39:31.043Z,0.90
2022-08-03T12:42:01.809Z,2.08
2022-08-03T12:44:35.732Z,1.00
2022-08-03T12:47:03.612Z,1.85
2022-08-03T12:49:57.095Z,0.63
2022-08-03T12:52:23.949Z,1.20
2022-08-03T12:54:58.481Z,1.35
2022-08-03T12:57:53.956Z,1.20
2022-08-03T13:00:28.560Z,1.60
2022-08-03T13:05:53.653Z,1.20
2022-08-03T13:08:25.711Z,1.70
2022-08-03T13:10:52.642Z,1.80
2022-08-03T13:13:20.821Z,1.48
2022-08-03T13:15:48.144Z,1.70
2022-08-03T13:18:17.350Z,1.48
2022-08-03T13:20:44.191Z,1.65
2022-08-03T13:23:12.958Z,1.30
2022-08-03T13:25:55.078Z,1.90
2022-08-03T13:28:22.549Z,1.60
2022-08-03T13:30:48.995Z,1.90
2022-08-03T13:33:15.518Z,2.28
2022-08-03T13:35:41.904Z,2.20
2022-08-03T13:38:08.467Z,1.98
2022-08-03T13:40:41.479Z,1.57
2022-08-03T13:43:08.929Z,1.73
2022-08-03T13:45:35.468Z,1.92
2022-08-03T13:48:01.971Z,1.45
2022-08-03T13:50:28.481Z,2.13
2022-08-03T13:52:55.029Z,1.83
2022-08-03T13:55:21.521Z,2.05
2022-08-03T13:58:02.242Z,1.83
2022-08-03T14:00:33.993Z,1.80
2022-08-03T14:03:12.801Z,2.00
2022-08-03T14:05:41.772Z,1.77
2022-08-03T14:08:09.057Z,2.00
2022-08-03T14:10:37.916Z,2.20
2022-08-03T14:13:04.953Z,2.25
2022-08-03T14:15:31.803Z,2.05
2022-08-03T14:18:03.690Z,2.10
2022-08-03T14:20:38.458Z,2.17
2022-08-03T14:23:12.885Z,1.77
2022-08-03T14:25:44.241Z,1.45
2022-08-03T14:28:19.342Z,1.25
2022-08-03T14:30:46.110Z,1.47
2022-08-03T14:33:12.589Z,2.10
2022-08-03T14:35:39.083Z,2.20
2022-08-03T14:38:07.645Z,1.95
2022-08-03T14:40:37.127Z,1.70
2022-08-03T14:43:03.820Z,1.90
2022-08-03T14:45:30.457Z,1.85
2022-08-03T14:50:33.158Z,1.75
2022-08-03T14:50:50.185Z,1.50
2022-08-03T14:53:18.033Z,1.98
2022-08-03T14:55:50.264Z,1.97
2022-08-03T14:58:20.756Z,1.75
2022-08-03T15:00:48.055Z,1.67
2022-08-03T15:03:16.610Z,1.75
2022-08-03T15:05:43.750Z,1.42
2022-08-03T15:08:10.310Z,1.70
2022-08-03T15:10:44.644Z,1.67
2022-08-03T15:13:13.050Z,1.92
2022-08-03T15:15:40.033Z,1.55
2022-08-03T15:18:06.652Z,1.45
2022-08-03T15:20:43.783Z,1.07
2022-08-03T15:23:11.557Z,1.00
2022-08-03T15:26:30.331Z,1.30
2022-08-03T15:28:24.574Z,1.40
2022-08-03T15:30:54.407Z,1.42
2022-08-03T15:33:21.219Z,1.77
2022-08-03T15:35:48.045Z,1.15
2022-08-03T15:38:14.656Z,2.45
2022-08-03T15:40:41.640Z,1.52
2022-08-03T15:43:08.486Z,1.10
2022-08-03T15:45:36.525Z,1.30
2022-08-03T15:48:04.713Z,1.35
2022-08-03T15:50:31.143Z,1.20
2022-08-03T15:52:57.587Z,1.40
2022-08-03T15:55:26.134Z,1.50
2022-08-03T15:59:03.265Z,1.13
2022-08-03T16:01:05.095Z,1.35
2022-08-03T16:03:35.017Z,1.20
2022-08-03T16:06:03.529Z,1.50
2022-08-03T16:08:30.715Z,1.25
2022-08-03T16:10:58.663Z,1.20
2022-08-03T16:14:12.487Z,1.20
2022-08-03T16:16:46.612Z,1.25
2022-08-03T16:19:23.429Z,1.00
2022-08-03T16:21:50.163Z,1.50
2022-08-03T16:24:17.506Z,1.27
2022-08-03T16:26:51.747Z,1.10
2022-08-03T16:29:36.803Z,1.33
2022-08-03T16:32:09.381Z,1.10
2022-08-03T16:34:41.313Z,1.50
2022-08-03T16:37:36.566Z,1.00
2022-08-03T16:39:55.618Z,1.13
2022-08-03T16:42:22.162Z,2.15
2022-08-03T16:44:48.801Z,1.33
2022-08-03T16:47:21.760Z,1.20
2022-08-03T16:49:53.713Z,1.20
2022-08-03T16:52:26.114Z,1.10
2022-08-03T16:54:53.965Z,2.05
2022-08-03T16:57:55.709Z,1.17
2022-08-03T17:00:34.628Z,1.60
2022-08-03T17:03:04.230Z,0.97
2022-08-03T17:05:43.718Z,1.40
2022-08-03T17:08:32.320Z,1.58
2022-08-03T17:10:58.774Z,1.25
2022-08-03T17:13:27.648Z,1.27
2022-08-03T17:16:08.877Z,1.10
2022-08-03T17:18:58.695Z,1.30
2022-08-03T17:21:30.953Z,1.45
2022-08-03T17:28:51.234Z,2.05
2022-08-03T17:30:56.025Z,1.23
2022-08-03T17:33:45.240Z,2.22
2022-08-03T17:36:36.984Z,1.25
2022-08-03T17:39:55.552Z,1.38
2022-08-03T17:42:31.240Z,1.20
2022-08-03T17:45:07.363Z,2.57
2022-08-03T17:47:57.408Z,2.03
2022-08-03T17:50:32.965Z,1.70
2022-08-03T17:53:23.437Z,1.15
2022-08-03T17:56:04.110Z,1.67
2022-08-03T17:58:58.405Z,1.30
2022-08-03T18:02:06.474Z,1.42
2022-08-03T18:05:16.829Z,1.13
2022-08-03T18:07:59.183Z,1.40
2022-08-03T18:10:34.473Z,1.35
2022-08-03T18:13:19.645Z,1.37
2022-08-03T18:16:12.897Z,1.27
2022-08-03T18:18:54.829Z,1.48
2022-08-03T18:22:02.733Z,1.40
2022-08-03T18:24:34.296Z,1.52
2022-08-03T18:27:02.685Z,1.30
2022-08-03T18:29:30.632Z,1.65
2022-08-03T18:32:33.306Z,1.63
2022-08-03T18:35:04.231Z,1.27
2022-08-03T18:37:32.327Z,1.67
2022-08-03T18:40:33.094Z,1.40
2022-08-03T18:42:59.574Z,1.65
2022-08-03T18:45:57.366Z,1.63
2022-08-03T18:48:35.579Z,1.33
2022-08-03T18:51:43.049Z,1.58
2022-08-03T18:55:02.920Z,1.60
2022-08-03T18:57:43.326Z,1.70
2022-08-03T19:00:15.900Z,1.88
2022-08-03T19:05:56.457Z,1.23
2022-08-03T19:08:47.841Z,1.30
2022-08-03T19:11:28.049Z,1.15
2022-08-03T19:13:59.222Z,1.20
2022-08-03T19:16:38.633Z,1.23
2022-08-03T19:19:10.380Z,1.30
2022-08-03T19:21:44.933Z,1.40
2022-08-03T19:24:13.985Z,1.30
2022-08-03T19:26:43.389Z,1.60
2022-08-03T19:29:59.583Z,1.25
2022-08-03T19:32:19.426Z,1.55
2022-08-03T19:34:47.885Z,0.83
2022-08-03T19:37:15.537Z,1.52
2022-08-03T19:39:43.349Z,1.70
2022-08-03T20:53:07.168Z,1.67
2022-08-03T20:55:47.993Z,2.08
2022-08-03T20:58:28.526Z,1.57
2022-08-03T21:01:11.231Z,2.20
2022-08-03T21:03:55.378Z,1.70
2022-08-03T21:06:37.704Z,2.13
2022-08-03T21:09:17.344Z,2.25
2022-08-03T21:11:48.862Z,2.10
2022-08-03T21:13:01.259Z,1.52
2022-08-03T21:14:20.047Z,2.30
2022-08-03T21:16:52.397Z,2.17
2022-08-03T21:19:21.709Z,1.80
2022-08-03T21:21:55.271Z,1.85
2022-08-03T21:24:30.647Z,1.80
2022-08-03T21:27:00.331Z,1.90
2022-08-03T21:29:28.220Z,2.60
2022-08-03T21:31:59.224Z,2.38
2022-08-03T21:34:27.256Z,1.98
2022-08-03T21:36:53.677Z,2.57
2022-08-03T21:39:20.243Z,1.80
2022-08-03T21:41:57.049Z,2.38
2022-08-03T21:44:28.752Z,2.53
2022-08-03T21:46:56.790Z,2.13
2022-08-03T21:50:07.262Z,3.13
2022-08-03T21:52:21.548Z,2.00
2022-08-03T21:55:05.664Z,2.17
2022-08-03T21:57:33.977Z,2.22
2022-08-03T22:00:27.585Z,2.20
2022-08-03T22:02:58.707Z,2.40
2022-08-03T22:05:42.501Z,2.08
2022-08-03T22:08:35.163Z,2.40
2022-08-03T22:11:04.574Z,1.98
2022-08-03T22:13:43.141Z,2.70
2022-08-03T22:16:11.584Z,1.83
2022-08-03T22:18:40.201Z,2.05
2022-08-03T22:21:27.619Z,2.15
2022-08-03T22:24:06.202Z,2.80
2022-08-03T22:27:06.980Z,2.90
2022-08-03T22:29:34.773Z,2.30
2022-08-03T22:32:01.448Z,2.33
2022-08-03T22:34:28.530Z,2.45
2022-08-03T22:37:02.113Z,1.98
2022-08-03T22:39:39.879Z,2.70
2022-08-03T22:42:08.798Z,1.97
2022-08-03T22:44:36.037Z,2.50
2022-08-03T22:47:09.681Z,2.88
2022-08-03T22:49:43.889Z,2.45
2022-08-03T22:52:14.716Z,2.67
2022-08-03T22:54:42.261Z,2.17
2022-08-03T22:57:09.121Z,2.15
2022-08-03T22:59:42.036Z,2.50
2022-08-03T23:02:21.342Z,2.80
2022-08-03T23:05:02.731Z,2.65
2022-08-03T23:07:37.799Z,2.27
2022-08-03T23:10:08.997Z,2.25
2022-08-03T23:12:55.611Z,2.80
2022-08-03T23:15:26.279Z,2.33
2022-08-03T23:17:58.565Z,2.67
2022-08-03T23:20:36.643Z,2.10
2022-08-03T23:23:04.975Z,2.45
2022-08-03T23:25:31.664Z,2.50
2022-08-03T23:28:05.067Z,2.90
2022-08-03T23:30:37.279Z,3.35
2022-08-03T23:33:13.084Z,2.40
2022-08-03T23:36:17.238Z,2.28
2022-08-03T23:38:46.388Z,2.80
2022-08-03T23:41:13.619Z,2.33
2022-08-03T23:43:46.995Z,2.78
2022-08-03T23:46:19.737Z,2.20
2022-08-03T23:48:46.344Z,2.10
2022-08-03T23:51:46.296Z,2.45
2022-08-03T23:54:50.226Z,2.85
2022-08-03T23:58:00.264Z,2.58
